Sanpo Maru No.5 — JL6343 — position and weather

sailwx.info

Track history (hours):
 
Tides and Currents Weather Stations Pressure Air Temp Water Temp Dewpoint Dewpoint Depression Visibility Wind Speed Wind Dir Waves Ship Positions

Sanpo Maru No.5

Last reported at 2015-Aug-31 05:19 UTC. Time now 2015-Sep-01 03:58 UTC.
Position N 33°51' E 130°26'.

Length 71 m; draft 3.5 m.

Type: Ship. MMSI: 431500283.

Date/timePositionNaut miles runAvg speedWind from/ knotsBaromVisibWave heightAir tempDewpointWater temp
2015-Aug-31 05:19N 33°51' E 130°26'911.6
2015-Aug-31 04:33N 33°44' E 130°19'9 8.8
2015-Aug-31 03:33N 33°36' E 130°23'0 0.2
2015-Aug-31 02:33N 33°36' E 130°23'0 0.0
2015-Aug-31 01:33N 33°36' E 130°23'0 0.0
2015-Aug-31 00:33N 33°36' E 130°23'0 0.0
2015-Aug-30 23:33N 33°36' E 130°23'1 1.4
2015-Aug-30 22:33N 33°37' E 130°22'0 0.3
2015-Aug-30 21:32N 33°37' E 130°22'0 0.0
2015-Aug-30 20:26N 33°37' E 130°22'0 0.0
2015-Aug-30 19:29N 33°37' E 130°22'0 0.0
2015-Aug-30 18:32N 33°37' E 130°22'2 2.5
2015-Aug-30 17:32N 33°38' E 130°19'8 8.0
2015-Aug-30 16:33N 33°46' E 130°18'20 8.6
2015-Aug-30 14:13N 33°58' E 130°38'12 0.4
2015-Aug-29 07:17N 33°51' E 130°26'810.7
2015-Aug-29 06:33N 33°46' E 130°20'8 7.9
2015-Aug-29 05:33N 33°38' E 130°21'2 2.3
2015-Aug-29 04:33N 33°36' E 130°23'0 0.0
2015-Aug-29 03:30N 33°36' E 130°23'0 0.0
2015-Aug-29 02:33N 33°36' E 130°23'0 0.0
2015-Aug-29 01:33N 33°36' E 130°23'0 0.0
2015-Aug-29 00:33N 33°36' E 130°23'0 0.0
2015-Aug-28 23:30N 33°36' E 130°23'2 2.0
2015-Aug-28 22:31N 33°38' E 130°21'0 0.0
2015-Aug-28 21:29N 33°37' E 130°21'0 0.0
2015-Aug-28 20:28N 33°37' E 130°21'0 0.1
2015-Aug-28 19:31N 33°38' E 130°21'0 0.0
2015-Aug-28 18:32N 33°38' E 130°21'0 0.0
2015-Aug-28 17:31N 33°37' E 130°21'0 0.0
2015-Aug-28 16:32N 33°37' E 130°21'0 0.0
2015-Aug-28 15:31N 33°37' E 130°21'0 0.0
2015-Aug-28 14:32N 33°38' E 130°21'6 6.6
2015-Aug-28 13:33N 33°42' E 130°16'10 9.6
2015-Aug-28 12:32N 33°51' E 130°21'3 0.1
2015-Aug-27 05:31N 33°50' E 130°25'1111.0
2015-Aug-27 04:33N 33°42' E 130°17'8 8.0
2015-Aug-27 03:32N 33°36' E 130°23'0 0.0
2015-Aug-27 02:33N 33°36' E 130°23'0 0.0
2015-Aug-27 01:33N 33°36' E 130°23'0 0.0
2015-Aug-27 00:32N 33°36' E 130°23'0 0.0
2015-Aug-26 23:33N 33°36' E 130°23'2 1.9
2015-Aug-26 22:33N 33°37' E 130°21'0 0.0
2015-Aug-26 21:32N 33°37' E 130°21'0 0.1
2015-Aug-26 20:32N 33°37' E 130°21'0 0.0
2015-Aug-26 19:17N 33°37' E 130°21'0 0.0
2015-Aug-26 18:32N 33°37' E 130°21'0 0.0
2015-Aug-26 17:32N 33°37' E 130°21'0 0.1
2015-Aug-26 16:32N 33°37' E 130°21'0 0.0
2015-Aug-26 15:32N 33°37' E 130°21'3 3.2
2015-Aug-26 14:33N 33°39' E 130°18'8 8.5
2015-Aug-26 13:33N 33°47' E 130°19'18 8.8
2015-Aug-26 11:30N 33°57' E 130°37'  
2015-Aug-23 02:32N 33°48' E 130°21'9 9.0
2015-Aug-23 01:33N 33°39' E 130°18'5 2.4
2015-Aug-22 23:25N 33°36' E 130°23'0 0.0
2015-Aug-22 22:32N 33°36' E 130°23'0 0.0
2015-Aug-22 21:33N 33°36' E 130°23'0 0.0
2015-Aug-22 20:34N 33°36' E 130°23'0 0.0
2015-Aug-22 19:32N 33°36' E 130°23'0 0.0
2015-Aug-22 18:33N 33°36' E 130°23'0 0.0
2015-Aug-22 17:32N 33°36' E 130°23'0 0.0
2015-Aug-22 16:32N 33°36' E 130°23'0 0.0
2015-Aug-22 15:32N 33°36' E 130°23'0 0.0
2015-Aug-22 14:33N 33°36' E 130°23'0 0.0
2015-Aug-22 13:33N 33°36' E 130°23'0 0.0
2015-Aug-22 12:32N 33°36' E 130°23'0 0.0
2015-Aug-22 11:32N 33°36' E 130°23'0 0.0
2015-Aug-22 10:33N 33°36' E 130°23'0 0.0
2015-Aug-22 09:33N 33°36' E 130°23'0 0.0
2015-Aug-22 08:32N 33°36' E 130°23'0 0.0
2015-Aug-22 07:33N 33°36' E 130°23'0 0.0
2015-Aug-22 06:33N 33°36' E 130°23'0 0.0
2015-Aug-22 05:32N 33°36' E 130°23'0 0.0
2015-Aug-22 04:32N 33°36' E 130°23'0 0.5
2015-Aug-22 03:33N 33°36' E 130°23'0 0.3
2015-Aug-22 02:32N 33°36' E 130°23'0 0.0
2015-Aug-22 01:33N 33°36' E 130°23'0 0.0
2015-Aug-22 00:33N 33°36' E 130°23'0 0.0
2015-Aug-21 23:32N 33°36' E 130°23'2 2.0
2015-Aug-21 22:33N 33°38' E 130°21'0 0.1
2015-Aug-21 21:33N 33°37' E 130°21'0 0.0
2015-Aug-21 20:33N 33°37' E 130°21'0 0.0
2015-Aug-21 19:27N 33°37' E 130°21'0 0.1
2015-Aug-21 18:33N 33°37' E 130°21'6 5.7
2015-Aug-21 17:33N 33°41' E 130°16'1010.0
2015-Aug-21 16:33N 33°51' E 130°20'19 9.2
2015-Aug-21 14:33N 33°58' E 130°41'  
Track history (hours):
 
Tides and Currents Weather Stations Pressure Air Temp Water Temp Dewpoint Dewpoint Depression Visibility Wind Speed Wind Dir Waves Ship Positions

Sanpo Maru No.5

Last reported at 2015-Aug-31 05:19 UTC. Time now 2015-Sep-01 03:58 UTC.
Position N 33°51' E 130°26'.

Length 71 m; draft 3.5 m.

Type: Ship. MMSI: 431500283.

Date/timePositionNaut miles runAvg speedWind from/ knotsBaromVisibWave heightAir tempDewpointWater temp
2015-Aug-31 05:19N 33°51' E 130°26'911.6
2015-Aug-31 04:33N 33°44' E 130°19'9 8.8
2015-Aug-31 03:33N 33°36' E 130°23'0 0.2
2015-Aug-31 02:33N 33°36' E 130°23'0 0.0
2015-Aug-31 01:33N 33°36' E 130°23'0 0.0
2015-Aug-31 00:33N 33°36' E 130°23'0 0.0
2015-Aug-30 23:33N 33°36' E 130°23'1 1.4
2015-Aug-30 22:33N 33°37' E 130°22'0 0.3
2015-Aug-30 21:32N 33°37' E 130°22'0 0.0
2015-Aug-30 20:26N 33°37' E 130°22'0 0.0
2015-Aug-30 19:29N 33°37' E 130°22'0 0.0
2015-Aug-30 18:32N 33°37' E 130°22'2 2.5
2015-Aug-30 17:32N 33°38' E 130°19'8 8.0
2015-Aug-30 16:33N 33°46' E 130°18'20 8.6
2015-Aug-30 14:13N 33°58' E 130°38'12 0.4
2015-Aug-29 07:17N 33°51' E 130°26'810.7
2015-Aug-29 06:33N 33°46' E 130°20'8 7.9
2015-Aug-29 05:33N 33°38' E 130°21'2 2.3
2015-Aug-29 04:33N 33°36' E 130°23'0 0.0
2015-Aug-29 03:30N 33°36' E 130°23'0 0.0
2015-Aug-29 02:33N 33°36' E 130°23'0 0.0
2015-Aug-29 01:33N 33°36' E 130°23'0 0.0
2015-Aug-29 00:33N 33°36' E 130°23'0 0.0
2015-Aug-28 23:30N 33°36' E 130°23'2 2.0
2015-Aug-28 22:31N 33°38' E 130°21'0 0.0
2015-Aug-28 21:29N 33°37' E 130°21'0 0.0
2015-Aug-28 20:28N 33°37' E 130°21'0 0.1
2015-Aug-28 19:31N 33°38' E 130°21'0 0.0
2015-Aug-28 18:32N 33°38' E 130°21'0 0.0
2015-Aug-28 17:31N 33°37' E 130°21'0 0.0
2015-Aug-28 16:32N 33°37' E 130°21'0 0.0
2015-Aug-28 15:31N 33°37' E 130°21'0 0.0
2015-Aug-28 14:32N 33°38' E 130°21'6 6.6
2015-Aug-28 13:33N 33°42' E 130°16'10 9.6
2015-Aug-28 12:32N 33°51' E 130°21'3 0.1
2015-Aug-27 05:31N 33°50' E 130°25'1111.0
2015-Aug-27 04:33N 33°42' E 130°17'8 8.0
2015-Aug-27 03:32N 33°36' E 130°23'0 0.0
2015-Aug-27 02:33N 33°36' E 130°23'0 0.0
2015-Aug-27 01:33N 33°36' E 130°23'0 0.0
2015-Aug-27 00:32N 33°36' E 130°23'0 0.0
2015-Aug-26 23:33N 33°36' E 130°23'2 1.9
2015-Aug-26 22:33N 33°37' E 130°21'0 0.0
2015-Aug-26 21:32N 33°37' E 130°21'0 0.1
2015-Aug-26 20:32N 33°37' E 130°21'0 0.0
2015-Aug-26 19:17N 33°37' E 130°21'0 0.0
2015-Aug-26 18:32N 33°37' E 130°21'0 0.0
2015-Aug-26 17:32N 33°37' E 130°21'0 0.1
2015-Aug-26 16:32N 33°37' E 130°21'0 0.0
2015-Aug-26 15:32N 33°37' E 130°21'3 3.2
2015-Aug-26 14:33N 33°39' E 130°18'8 8.5
2015-Aug-26 13:33N 33°47' E 130°19'18 8.8
2015-Aug-26 11:30N 33°57' E 130°37'  
2015-Aug-23 02:32N 33°48' E 130°21'9 9.0
2015-Aug-23 01:33N 33°39' E 130°18'5 2.4
2015-Aug-22 23:25N 33°36' E 130°23'0 0.0
2015-Aug-22 22:32N 33°36' E 130°23'0 0.0
2015-Aug-22 21:33N 33°36' E 130°23'0 0.0
2015-Aug-22 20:34N 33°36' E 130°23'0 0.0
2015-Aug-22 19:32N 33°36' E 130°23'0 0.0
2015-Aug-22 18:33N 33°36' E 130°23'0 0.0
2015-Aug-22 17:32N 33°36' E 130°23'0 0.0
2015-Aug-22 16:32N 33°36' E 130°23'0 0.0
2015-Aug-22 15:32N 33°36' E 130°23'0 0.0
2015-Aug-22 14:33N 33°36' E 130°23'0 0.0
2015-Aug-22 13:33N 33°36' E 130°23'0 0.0
2015-Aug-22 12:32N 33°36' E 130°23'0 0.0
2015-Aug-22 11:32N 33°36' E 130°23'0 0.0
2015-Aug-22 10:33N 33°36' E 130°23'0 0.0
2015-Aug-22 09:33N 33°36' E 130°23'0 0.0
2015-Aug-22 08:32N 33°36' E 130°23'0 0.0
2015-Aug-22 07:33N 33°36' E 130°23'0 0.0
2015-Aug-22 06:33N 33°36' E 130°23'0 0.0
2015-Aug-22 05:32N 33°36' E 130°23'0 0.0
2015-Aug-22 04:32N 33°36' E 130°23'0 0.5
2015-Aug-22 03:33N 33°36' E 130°23'0 0.3
2015-Aug-22 02:32N 33°36' E 130°23'0 0.0
2015-Aug-22 01:33N 33°36' E 130°23'0 0.0
2015-Aug-22 00:33N 33°36' E 130°23'0 0.0
2015-Aug-21 23:32N 33°36' E 130°23'2 2.0
2015-Aug-21 22:33N 33°38' E 130°21'0 0.1
2015-Aug-21 21:33N 33°37' E 130°21'0 0.0
2015-Aug-21 20:33N 33°37' E 130°21'0 0.0
2015-Aug-21 19:27N 33°37' E 130°21'0 0.1
2015-Aug-21 18:33N 33°37' E 130°21'6 5.7
2015-Aug-21 17:33N 33°41' E 130°16'1010.0
2015-Aug-21 16:33N 33°51' E 130°20'19 9.2
2015-Aug-21 14:33N 33°58' E 130°41'  

Dump ship's entire track history